Yuma, Colorado
Current Conditions -  °F | °C
As of 3:53 AM on Saturday 25 Oct 2014 (Local Time) from KAKO Reporting Station
Clear Clear  
Wind Chill: 43°   Ceiling: Unl
Heat Index: 47°   Visibility: 10mi
Dew Point: 28°   Wind: 9mph
Humidity: 48%   Direction: 270°W
Pressure: 30.16"   Gusts: NA
Location:  40.12°N, 102.73°W
Report Text: KAKO 250953Z AUTO 27008KT 10SM CLR 08/M02 A3016 RMK AO2 SLP170 T00831022
Loading
Personal Weather Stations






























Interactive Weather Map
Tropical Storm Tracking
New forecast layout! Learn more

10-Day Weather Forecast

Advertisements
Track Severe Weather on mobile